CheckWX is a tool to help pilots better visualize weather data.  It is not intended as a substitute for an official pre-flight weather briefing.

16:57:42 UTC

KDEN TAF
Denver International Airport
Denver, Colorado, USA
KDEN 181611Z 1816/1918 02005KT P6SM BKN025 BKN080 FM181800 03006KT P6SM SCT040 BKN090 TEMPO 1820/1824 VRB20G30KT 5SM -TSRA BKN030CB FM190000 09010KT P6SM VCTS SCT050CB BKN080 TEMPO 1901/1904 -TSRA SCT050CB FM190900 22005KT P6SM VCFG BKN100 FM191500 25006KT P6SM BKN220

Jun-18@
16:00 UTC

Jun-18 @ 16:00 UTC

Jun-18@
18:00 UTC

Jun-18 @ 18:00 UTC

KDEN 181611Z 1816/1918 02005KT P6SM BKN025 BKN080
Wind
  • 020° at 5 KTS
Cloud Levels
  • Broken at 2,500' AGL
  • Broken at 8,000' AGL

Jun-18@
18:00 UTC

Jun-18 @ 18:00 UTC

Jun-19@
00:00 UTC

Jun-19 @ 00:00 UTC

FM181800 03006KT P6SM SCT040 BKN090

From

From Standard forecast or significant change

Wind
  • 030° at 6 KTS
Cloud Levels
  • Scattered at 4,000' AGL
  • Broken at 9,000' AGL

Jun-18@
20:00 UTC

Jun-18 @ 20:00 UTC

Jun-19@
00:00 UTC

Jun-19 @ 00:00 UTC

TEMPO 1820/1824 VRB20G30KT 5SM -TSRA BKN030CB

Temporary

Temporary Changes expected for less than half the time period

Wind
  • Variable at 20 KTS
  • {Gusting to 30 KTS
Conditions
Light Thunderstorm, Light Rain
Cloud Levels
  • Broken at 3,000' AGL

Jun-19@
00:00 UTC

Jun-19 @ 00:00 UTC

Jun-19@
09:00 UTC

Jun-19 @ 09:00 UTC

FM190000 09010KT P6SM VCTS SCT050CB BKN080

From

From Standard forecast or significant change

Wind
  • 090° at 10 KTS
Conditions
Area Thunderstorm
Cloud Levels
  • Scattered at 5,000' AGL
  • Broken at 8,000' AGL

Jun-19@
01:00 UTC

Jun-19 @ 01:00 UTC

Jun-19@
04:00 UTC

Jun-19 @ 04:00 UTC

TEMPO 1901/1904 -TSRA SCT050CB

Temporary

Temporary Changes expected for less than half the time period

Conditions
Light Thunderstorm, Light Rain
Cloud Levels
  • Scattered at 5,000' AGL

Jun-19@
09:00 UTC

Jun-19 @ 09:00 UTC

Jun-19@
15:00 UTC

Jun-19 @ 15:00 UTC

FM190900 22005KT P6SM VCFG BKN100

From

From Standard forecast or significant change

Wind
  • 220° at 5 KTS
Conditions
Area Fog
Cloud Levels
  • Broken at 10,000' AGL

Jun-19@
15:00 UTC

Jun-19 @ 15:00 UTC

Jun-19@
18:00 UTC

Jun-19 @ 18:00 UTC

FM191500 25006KT P6SM BKN220

From

From Standard forecast or significant change

Wind
  • 250° at 6 KTS
Cloud Levels
  • Broken at 22,000' AGL